Time;durP1;ratioP1;P1;durP2;ratioP2;P2;SDS_P1;SDS_P2;PMS_P1;PMS_P2;Temp;Humidity;BMP_temperature;BMP_pressure;BME280_temperature;BME280_humidity;BME280_pressure;Samples;Min_cycle;Max_cycle;Signal;HPM_P1;HPM_P2
2021/12/21 00:01:39;;;;;;;12.15;2.13;;;30.80;54.20;;;;;;5110987;28;20370;-87
2021/12/21 00:04:06;;;;;;;12.73;2.13;;;31.10;52.70;;;;;;5111622;28;20643;-88
2021/12/21 00:06:33;;;;;;;13.30;1.90;;;30.90;53.60;;;;;;5111711;28;20455;-88
2021/12/21 00:09:00;;;;;;;10.57;2.03;;;30.80;54.20;;;;;;5126017;27;20388;-86
2021/12/21 00:11:27;;;;;;;3.75;1.33;;;30.80;55.50;;;;;;5130450;27;20377;-88
2021/12/21 00:14:09;;;;;;;5.78;1.42;;;31.10;54.90;;;;;;5132680;27;20832;-86
2021/12/21 00:22:07;;;;;;;7.70;1.70;;;31.80;54.30;;;;;;5097701;27;20370;-86
2021/12/21 00:24:44;;;;;;;7.00;1.67;;;31.70;53.90;;;;;;5110625;28;20386;-87
2021/12/21 00:27:13;;;;;;;5.53;1.67;;;31.50;53.10;;;;;;5110762;28;20363;-90
2021/12/21 00:29:40;;;;;;;7.28;1.65;;;31.10;53.60;;;;;;5112332;28;20381;-89
2021/12/21 00:32:08;;;;;;;7.33;1.70;;;30.60;54.70;;;;;;5113943;27;20383;-86
2021/12/21 00:34:37;;;;;;;6.43;1.70;;;30.80;53.80;;;;;;5104371;28;20398;-88
2021/12/21 00:37:05;;;;;;;6.85;1.55;;;31.20;54.90;;;;;;5111561;28;20378;-89
2021/12/21 00:39:32;;;;;;;4.93;1.40;;;31.60;54.80;;;;;;5120198;27;20393;-89
2021/12/21 00:42:01;;;;;;;5.68;1.50;;;32.20;54.00;;;;;;5131829;27;20421;-88
2021/12/21 00:44:29;;;;;;;7.22;1.60;;;32.80;51.80;;;;;;5131962;27;20460;-91
2021/12/21 00:46:56;;;;;;;5.10;1.60;;;33.40;49.70;;;;;;5132625;27;20452;-89
2021/12/21 00:49:24;;;;;;;6.75;1.70;;;33.60;48.30;;;;;;5130345;27;20435;-89
2021/12/21 00:51:51;;;;;;;9.33;1.60;;;33.60;51.20;;;;;;5130412;27;20376;-90
2021/12/21 00:54:18;;;;;;;5.47;1.60;;;33.80;49.60;;;;;;5130220;27;20385;-88
2021/12/21 00:56:45;;;;;;;4.60;1.60;;;34.00;48.60;;;;;;5130029;27;20378;-85
2021/12/21 00:59:13;;;;;;;5.83;1.63;;;33.80;49.90;;;;;;5097697;27;20369;-87
2021/12/21 01:01:43;;;;;;;5.03;1.60;;;33.40;50.10;;;;;;5130405;27;20364;-87
2021/12/21 01:04:20;;;;;;;6.10;1.50;;;32.80;50.80;;;;;;5111981;27;20373;-90
2021/12/21 01:07:01;;;;;;;5.03;1.70;;;32.60;51.70;;;;;;5112007;27;20406;-90
2021/12/21 01:12:16;;;;;;;6.10;1.80;;;32.40;53.20;;;;;;5134005;27;20363;-88
2021/12/21 01:17:35;;;;;;;6.30;1.63;;;32.50;50.40;;;;;;5120960;27;20386;-86
2021/12/21 01:20:23;;;;;;;6.80;1.73;;;32.60;50.40;;;;;;5130041;27;20377;-90
2021/12/21 01:23:19;;;;;;;5.53;1.60;;;32.70;52.10;;;;;;5109560;28;20390;-88
2021/12/21 01:25:48;;;;;;;4.28;1.55;;;33.40;49.80;;;;;;5114511;27;20395;-90
2021/12/21 01:33:37;;;;;;;7.13;1.48;;;35.10;46.70;;;;;;5129455;27;20740;-87
2021/12/21 01:36:07;;;;;;;8.07;1.70;;;34.50;47.60;;;;;;5129230;27;20381;-88
2021/12/21 01:38:44;;;;;;;4.47;1.75;;;34.50;48.40;;;;;;5129143;27;20373;-86
2021/12/21 01:41:40;;;;;;;7.40;1.70;;;34.60;47.40;;;;;;5129000;27;20408;-87
2021/12/21 01:44:14;;;;;;;6.68;1.55;;;34.70;46.60;;;;;;5132818;27;20365;-88
2021/12/21 01:52:15;;;;;;;5.80;1.60;;;35.90;47.50;;;;;;5128138;27;20376;-88
2021/12/21 01:54:43;;;;;;;5.78;1.73;;;36.00;46.80;;;;;;5129464;27;20452;-85
2021/12/21 01:57:11;;;;;;;6.10;1.75;;;35.90;45.50;;;;;;5111680;27;20790;-86
2021/12/21 01:59:39;;;;;;;4.43;1.70;;;36.10;46.10;;;;;;5139757;27;20410;-89
2021/12/21 02:02:08;;;;;;;5.53;1.60;;;36.80;43.20;;;;;;5144269;27;20369;-87
2021/12/21 02:04:37;;;;;;;5.65;1.60;;;36.60;44.60;;;;;;5136977;27;20475;-88
2021/12/21 02:07:05;;;;;;;4.78;1.63;;;36.70;42.40;;;;;;5130032;27;20373;-89
2021/12/21 02:09:37;;;;;;;5.70;1.48;;;36.90;44.30;;;;;;5128955;27;20777;-88
2021/12/21 02:12:10;;;;;;;4.30;1.50;;;37.50;43.80;;;;;;5129681;27;20442;-88
2021/12/21 02:14:39;;;;;;;4.32;1.58;;;37.70;43.50;;;;;;5128900;27;20570;-88
2021/12/21 02:20:08;;;;;;;4.37;1.50;;;37.90;42.90;;;;;;5128796;27;20372;-87
2021/12/21 02:22:41;;;;;;;4.85;1.58;;;39.00;42.20;;;;;;5107353;27;20384;-88
2021/12/21 02:25:35;;;;;;;6.38;1.50;;;39.20;41.20;;;;;;5128950;27;20399;-88
2021/12/21 02:30:52;;;;;;;4.80;1.50;;;40.10;40.90;;;;;;5086135;27;20792;-86
2021/12/21 02:33:20;;;;;;;4.90;1.70;;;40.30;39.70;;;;;;5128278;27;20433;-90
2021/12/21 02:35:47;;;;;;;6.53;1.60;;;40.70;38.60;;;;;;5128505;27;20430;-86
2021/12/21 02:38:14;;;;;;;11.27;1.92;;;40.30;39.90;;;;;;5128222;27;20357;-89
2021/12/21 02:40:42;;;;;;;6.05;1.55;;;40.60;38.50;;;;;;5128106;27;20462;-87
2021/12/21 02:43:10;;;;;;;8.68;1.80;;;41.00;37.30;;;;;;5127560;27;20382;-87
2021/12/21 02:45:39;;;;;;;4.40;1.50;;;40.50;37.20;;;;;;5127528;27;20380;-87
2021/12/21 02:48:07;;;;;;;7.90;1.60;;;40.50;37.60;;;;;;5127936;27;20899;-85
2021/12/21 02:50:36;;;;;;;4.90;1.50;;;39.80;38.60;;;;;;5126802;27;20380;-87
2021/12/21 02:53:03;;;;;;;6.22;1.80;;;40.20;38.00;;;;;;5127503;27;20865;-86
2021/12/21 02:55:30;;;;;;;5.93;1.63;;;41.00;37.00;;;;;;5127121;27;20530;-87
2021/12/21 02:57:57;;;;;;;6.47;1.70;;;41.40;37.70;;;;;;5127546;27;20833;-86
2021/12/21 03:00:29;;;;;;;8.18;1.90;;;41.40;37.20;;;;;;5129875;27;20887;-88
2021/12/21 03:02:56;;;;;;;5.18;1.58;;;41.30;37.00;;;;;;5127715;27;20407;-87
2021/12/21 03:05:23;;;;;;;5.97;1.70;;;41.60;37.80;;;;;;5130192;27;20999;-86
2021/12/21 03:10:35;;;;;;;5.45;1.33;;;42.40;35.90;;;;;;5127887;27;20380;-88
2021/12/21 03:15:48;;;;;;;5.45;1.50;;;42.00;36.70;;;;;;5127676;27;20408;-87
2021/12/21 03:18:15;;;;;;;5.13;1.40;;;41.70;37.30;;;;;;5127389;27;20389;-88
2021/12/21 03:20:42;;;;;;;4.38;1.70;;;42.20;35.70;;;;;;5125591;27;20501;-87
2021/12/21 03:23:09;;;;;;;5.83;1.57;;;42.50;35.60;;;;;;5127392;27;20395;-89
2021/12/21 03:25:36;;;;;;;6.18;1.60;;;43.00;35.20;;;;;;5127839;28;20380;-86
2021/12/21 03:28:03;;;;;;;7.03;1.70;;;43.30;34.30;;;;;;5127677;28;20960;-90
2021/12/21 03:30:30;;;;;;;5.05;1.63;;;43.50;34.70;;;;;;5128566;27;20443;-87
2021/12/21 03:32:57;;;;;;;5.03;1.67;;;42.80;36.20;;;;;;5127531;27;20744;-89
2021/12/21 03:35:25;;;;;;;6.85;1.85;;;42.90;35.80;;;;;;5127592;28;20404;-86
2021/12/21 03:37:52;;;;;;;4.65;1.50;;;42.80;35.40;;;;;;5125842;27;20369;-87
2021/12/21 03:40:19;;;;;;;7.00;1.63;;;43.00;33.80;;;;;;5127437;27;20434;-83
2021/12/21 03:42:46;;;;;;;4.22;1.60;;;43.10;34.30;;;;;;5136811;27;20377;-87
2021/12/21 03:45:13;;;;;;;3.90;1.50;;;43.40;34.90;;;;;;5111148;28;20382;-89
2021/12/21 03:47:40;;;;;;;6.97;1.60;;;43.40;34.50;;;;;;5128308;28;20368;-85
2021/12/21 03:50:15;;;;;;;5.90;1.80;;;43.40;34.70;;;;;;5127562;27;20387;-86
2021/12/21 03:52:42;;;;;;;6.28;1.80;;;43.20;35.70;;;;;;5126960;28;20384;-85
2021/12/21 03:55:10;;;;;;;5.03;1.63;;;42.90;36.10;;;;;;5127082;28;20412;-85
2021/12/21 03:57:37;;;;;;;7.45;1.92;;;42.80;37.00;;;;;;5127253;28;20365;-83
2021/12/21 04:00:11;;;;;;;5.38;1.70;;;42.80;36.30;;;;;;5126398;27;20444;-88
2021/12/21 04:02:38;;;;;;;7.57;1.67;;;43.10;36.10;;;;;;5121070;28;20412;-83
2021/12/21 04:05:06;;;;;;;4.20;1.70;;;43.20;35.40;;;;;;5126745;27;20393;-87
2021/12/21 04:07:33;;;;;;;3.92;1.60;;;43.30;36.20;;;;;;5126719;28;20377;-85
2021/12/21 04:10:00;;;;;;;4.03;1.70;;;43.30;35.50;;;;;;5107985;28;20411;-84
2021/12/21 04:12:27;;;;;;;5.82;1.67;;;42.90;35.90;;;;;;5126707;28;20450;-84
2021/12/21 04:14:56;;;;;;;5.72;1.90;;;42.40;36.10;;;;;;5126880;27;20401;-85
2021/12/21 04:17:24;;;;;;;7.30;1.85;;;42.10;36.70;;;;;;5107983;27;20376;-86
2021/12/21 04:19:52;;;;;;;4.65;1.60;;;41.80;36.80;;;;;;5126641;27;20511;-85
2021/12/21 04:22:20;;;;;;;5.20;1.60;;;41.90;37.10;;;;;;5127134;28;20459;-86
2021/12/21 04:24:47;;;;;;;5.10;1.67;;;42.00;37.50;;;;;;5126912;27;21226;-86
2021/12/21 04:27:15;;;;;;;4.75;1.70;;;42.30;36.20;;;;;;5127019;28;20452;-85
2021/12/21 04:29:42;;;;;;;4.63;1.73;;;42.40;37.00;;;;;;5126685;28;20385;-86
2021/12/21 04:32:09;;;;;;;5.38;1.70;;;42.50;37.30;;;;;;5127292;27;20372;-86
2021/12/21 04:34:38;;;;;;;4.25;1.60;;;42.40;37.40;;;;;;5129992;27;20446;-86
2021/12/21 04:37:06;;;;;;;5.63;1.83;;;42.30;37.40;;;;;;5131034;27;20734;-86
2021/12/21 04:42:00;;;;;;;4.80;1.70;;;42.20;37.50;;;;;;5131030;27;20372;-85
2021/12/21 04:44:27;;;;;;;7.28;1.80;;;42.20;36.80;;;;;;5130642;27;20381;-85
2021/12/21 04:46:54;;;;;;;6.20;1.80;;;42.00;37.10;;;;;;5130999;27;20376;-85
2021/12/21 04:49:21;;;;;;;5.80;1.85;;;42.00;36.60;;;;;;5131215;27;20369;-87
2021/12/21 04:51:48;;;;;;;6.03;1.70;;;41.90;36.80;;;;;;5126512;27;20569;-86
2021/12/21 04:54:15;;;;;;;4.38;1.65;;;42.20;36.80;;;;;;5130632;27;20388;-83
2021/12/21 04:56:42;;;;;;;6.33;1.60;;;42.60;36.70;;;;;;5130355;27;20381;-81
2021/12/21 04:59:09;;;;;;;4.68;1.80;;;42.70;36.10;;;;;;5130447;27;20372;-84
2021/12/21 05:01:36;;;;;;;5.63;1.70;;;42.40;37.90;;;;;;5130002;27;20403;-85
2021/12/21 05:04:03;;;;;;;6.25;2.00;;;42.20;38.40;;;;;;5130014;27;20374;-82
2021/12/21 05:06:31;;;;;;;7.05;1.80;;;42.00;36.40;;;;;;5130237;27;20369;-88
2021/12/21 05:09:24;;;;;;;4.72;1.60;;;42.20;36.70;;;;;;5130230;27;20429;-84
2021/12/21 05:11:53;;;;;;;6.97;1.70;;;42.30;37.10;;;;;;5130114;27;20376;-83
2021/12/21 05:14:20;;;;;;;5.37;1.77;;;42.10;36.80;;;;;;5130261;27;20384;-83
2021/12/21 05:16:47;;;;;;;5.90;1.83;;;41.80;38.20;;;;;;5129799;27;20411;-83
2021/12/21 05:19:14;;;;;;;7.57;1.77;;;41.60;37.70;;;;;;5130233;27;20400;-83
2021/12/21 05:21:41;;;;;;;7.45;1.73;;;41.30;38.10;;;;;;5129906;27;20388;-83
2021/12/21 05:24:08;;;;;;;4.07;1.50;;;41.90;38.00;;;;;;5129657;27;20394;-83
2021/12/21 05:26:37;;;;;;;4.22;1.55;;;42.10;36.70;;;;;;5129437;27;20407;-83
2021/12/21 05:29:05;;;;;;;4.68;1.70;;;41.90;36.80;;;;;;5129355;27;20404;-84
2021/12/21 05:31:32;;;;;;;6.83;1.80;;;41.80;36.80;;;;;;5131178;27;20377;-85
2021/12/21 05:33:58;;;;;;;3.72;1.60;;;41.70;36.30;;;;;;5133321;27;20476;-87
2021/12/21 05:36:26;;;;;;;4.57;1.90;;;41.80;37.60;;;;;;5113808;27;20749;-87
2021/12/21 05:38:58;;;;;;;3.90;1.65;;;41.90;37.20;;;;;;5129413;27;20365;-82
2021/12/21 05:41:46;;;;;;;3.40;1.60;;;41.90;36.50;;;;;;5129035;27;20384;-82
2021/12/21 05:44:15;;;;;;;5.13;1.63;;;41.80;37.30;;;;;;5112347;27;20740;-84
2021/12/21 05:46:42;;;;;;;5.10;1.70;;;41.80;37.70;;;;;;5128632;27;20774;-84
2021/12/21 05:49:09;;;;;;;4.43;1.60;;;42.00;36.70;;;;;;5131871;27;20435;-85
2021/12/21 05:51:36;;;;;;;6.97;1.67;;;42.10;36.40;;;;;;5128647;27;20373;-86
2021/12/21 05:54:03;;;;;;;8.93;1.90;;;42.30;36.50;;;;;;5129021;27;20441;-82
2021/12/21 05:56:30;;;;;;;5.88;1.80;;;41.90;36.30;;;;;;5129777;27;20393;-87
2021/12/21 05:58:57;;;;;;;5.07;1.80;;;41.30;37.40;;;;;;5129161;27;20376;-83
2021/12/21 06:01:25;;;;;;;7.20;1.70;;;41.10;37.20;;;;;;5128813;27;20472;-85
2021/12/21 06:03:52;;;;;;;5.57;1.73;;;40.90;37.70;;;;;;5129961;27;20492;-84
2021/12/21 06:06:19;;;;;;;6.10;1.80;;;41.10;38.00;;;;;;5128429;27;20421;-83
2021/12/21 06:08:47;;;;;;;6.70;2.00;;;40.90;37.80;;;;;;5129068;27;20377;-83
2021/12/21 06:11:15;;;;;;;4.88;1.77;;;40.90;38.60;;;;;;5129962;27;20385;-84
2021/12/21 06:26:40;;;;;;;6.47;1.80;;;40.60;39.10;;;;;;5127883;27;20408;-82
2021/12/21 06:29:07;;;;;;;7.73;2.17;;;40.40;39.40;;;;;;5130178;27;20797;-85
2021/12/21 06:31:34;;;;;;;5.53;2.10;;;40.10;40.40;;;;;;5127745;27;20404;-83
2021/12/21 06:34:01;;;;;;;6.78;2.10;;;39.80;41.60;;;;;;5128465;27;20445;-82
2021/12/21 06:36:28;;;;;;;7.38;2.22;;;40.00;41.40;;;;;;5128384;27;20385;-87
2021/12/21 06:38:55;;;;;;;8.75;2.28;;;40.00;41.40;;;;;;5127862;27;20393;-86
2021/12/21 06:41:22;;;;;;;5.80;2.15;;;39.90;41.30;;;;;;5128169;27;20396;-85
2021/12/21 06:43:49;;;;;;;8.30;2.28;;;39.90;41.40;;;;;;5128147;27;20894;-86
2021/12/21 06:51:51;;;;;;;6.95;2.05;;;40.00;40.40;;;;;;5127728;27;20433;-84
2021/12/21 06:54:19;;;;;;;6.87;2.00;;;39.80;40.60;;;;;;5127810;27;20385;-82
2021/12/21 06:56:46;;;;;;;9.30;2.33;;;39.90;40.50;;;;;;5127628;27;20433;-82
2021/12/21 06:59:13;;;;;;;6.07;2.30;;;40.00;41.20;;;;;;5128056;27;20366;-83
2021/12/21 07:01:41;;;;;;;8.70;2.53;;;39.80;40.90;;;;;;5127980;27;20380;-84
2021/12/21 07:04:10;;;;;;;6.80;2.28;;;39.40;42.00;;;;;;5090040;28;20386;-84
2021/12/21 07:06:39;;;;;;;7.57;2.30;;;39.20;42.00;;;;;;5121401;27;20511;-82
2021/12/21 07:19:39;;;;;;;8.05;2.10;;;38.00;44.00;;;;;;5127913;27;20448;-88
2021/12/21 07:22:06;;;;;;;5.57;2.35;;;37.70;44.70;;;;;;5127459;27;20923;-88
2021/12/21 07:24:34;;;;;;;6.60;2.40;;;37.80;44.50;;;;;;5127829;27;20457;-90
2021/12/21 07:27:01;;;;;;;7.38;2.15;;;37.80;43.60;;;;;;5127439;27;20472;-81
2021/12/21 07:29:28;;;;;;;9.10;2.30;;;37.80;44.30;;;;;;5127737;27;20373;-82
2021/12/21 07:31:55;;;;;;;7.88;2.30;;;37.60;45.00;;;;;;5127299;28;20382;-82
2021/12/21 07:34:22;;;;;;;6.50;2.35;;;37.60;44.40;;;;;;5109172;28;20388;-85
2021/12/21 07:36:50;;;;;;;7.97;2.07;;;37.40;43.80;;;;;;5127105;28;20399;-83
2021/12/21 07:39:18;;;;;;;6.87;2.27;;;37.10;44.80;;;;;;5127108;27;20476;-82
2021/12/21 07:41:46;;;;;;;7.10;2.40;;;36.70;45.20;;;;;;5129873;27;20384;-83
2021/12/21 07:44:14;;;;;;;9.20;2.40;;;36.40;45.70;;;;;;5126970;27;20405;-82
2021/12/21 07:46:42;;;;;;;7.05;2.30;;;36.20;46.20;;;;;;5127788;27;20381;-84
2021/12/21 07:49:10;;;;;;;8.20;2.20;;;36.10;46.60;;;;;;5126797;27;20381;-85
2021/12/21 07:51:37;;;;;;;7.25;2.30;;;35.90;46.10;;;;;;5127520;27;20376;-84
2021/12/21 07:54:04;;;;;;;6.47;2.50;;;35.60;47.50;;;;;;5126694;28;20392;-84
2021/12/21 07:56:31;;;;;;;5.75;2.22;;;35.30;47.50;;;;;;5127314;28;20372;-85
2021/12/21 07:58:59;;;;;;;5.10;2.13;;;35.30;47.80;;;;;;5131419;27;20397;-84
2021/12/21 08:01:26;;;;;;;6.03;2.20;;;35.30;47.80;;;;;;5126836;27;20412;-84
2021/12/21 08:03:54;;;;;;;8.27;2.20;;;35.10;47.60;;;;;;5127066;28;20385;-84
2021/12/21 08:06:21;;;;;;;8.82;2.35;;;34.70;48.60;;;;;;5127611;27;20460;-82
2021/12/21 08:08:49;;;;;;;6.68;2.20;;;34.40;48.90;;;;;;5112649;27;20437;-82
2021/12/21 08:11:29;;;;;;;7.30;2.20;;;34.20;49.50;;;;;;5130642;27;20408;-84
2021/12/21 08:13:56;;;;;;;6.88;2.38;;;33.90;49.70;;;;;;5129312;27;20458;-83
2021/12/21 08:16:23;;;;;;;6.13;2.30;;;33.40;50.60;;;;;;5131211;27;20389;-84
2021/12/21 08:18:51;;;;;;;7.63;2.20;;;33.00;51.40;;;;;;5130981;27;20385;-85
2021/12/21 08:21:18;;;;;;;7.05;2.40;;;32.50;52.40;;;;;;5131186;27;20376;-83
2021/12/21 08:23:46;;;;;;;9.32;2.47;;;32.20;52.90;;;;;;5130343;27;20464;-83
2021/12/21 08:26:13;;;;;;;8.05;2.20;;;31.70;54.00;;;;;;5131091;27;20449;-83
2021/12/21 08:28:40;;;;;;;6.90;2.50;;;31.40;54.50;;;;;;5130476;27;20381;-85
2021/12/21 08:31:10;;;;;;;7.05;2.10;;;31.10;55.50;;;;;;5130480;27;20472;-82
2021/12/21 08:33:38;;;;;;;9.50;2.40;;;31.00;56.20;;;;;;5129759;27;20773;-84
2021/12/21 08:36:06;;;;;;;8.00;2.50;;;30.70;56.60;;;;;;5130858;27;20409;-83
2021/12/21 08:38:36;;;;;;;7.13;2.28;;;30.50;57.40;;;;;;5130052;27;20778;-84
2021/12/21 08:41:04;;;;;;;7.03;2.10;;;30.20;58.00;;;;;;5109825;28;20383;-82
2021/12/21 08:43:32;;;;;;;8.63;2.37;;;29.90;59.00;;;;;;5109458;28;20389;-83
2021/12/21 08:46:00;;;;;;;10.68;2.58;;;29.60;59.90;;;;;;5110213;28;20374;-85
2021/12/21 08:48:27;;;;;;;7.10;2.13;;;29.40;60.00;;;;;;5109002;28;20519;-85
2021/12/21 08:50:56;;;;;;;8.02;2.30;;;29.20;60.90;;;;;;5110009;28;20379;-85
2021/12/21 08:53:24;;;;;;;8.70;2.22;;;29.00;61.60;;;;;;5086594;28;20393;-85
2021/12/21 08:55:52;;;;;;;8.77;2.40;;;28.70;62.90;;;;;;5109506;28;20414;-84
2021/12/21 08:58:20;;;;;;;8.33;2.57;;;28.40;64.00;;;;;;5114184;28;20473;-84
2021/12/21 09:00:48;;;;;;;7.72;2.42;;;28.30;64.50;;;;;;5109855;28;20850;-86
2021/12/21 09:03:15;;;;;;;8.02;2.40;;;28.10;65.40;;;;;;5111423;28;20379;-85
2021/12/21 09:05:42;;;;;;;8.13;2.45;;;27.80;66.30;;;;;;5112552;28;20375;-87
2021/12/21 09:08:10;;;;;;;9.25;2.75;;;27.60;67.30;;;;;;5108809;28;20711;-85
2021/12/21 09:10:41;;;;;;;10.10;2.53;;;27.40;68.40;;;;;;5109689;28;21028;-85
2021/12/21 09:13:09;;;;;;;8.25;2.67;;;27.20;69.50;;;;;;5109285;28;20371;-84
2021/12/21 09:15:37;;;;;;;7.78;2.42;;;27.00;70.50;;;;;;5101409;28;20879;-84
2021/12/21 09:18:05;;;;;;;8.32;2.80;;;26.90;71.60;;;;;;5109037;28;20379;-85
2021/12/21 09:20:37;;;;;;;7.68;2.55;;;26.80;72.80;;;;;;5109532;28;20375;-86
2021/12/21 09:23:04;;;;;;;6.93;2.40;;;26.60;74.30;;;;;;5109566;28;20370;-85
2021/12/21 09:25:32;;;;;;;10.00;2.50;;;26.50;76.20;;;;;;5109105;28;20382;-86
2021/12/21 09:27:59;;;;;;;8.68;2.50;;;26.40;78.10;;;;;;5108754;28;20381;-87
2021/12/21 09:30:30;;;;;;;9.80;2.72;;;26.20;80.30;;;;;;5108461;28;20397;-86
2021/12/21 09:32:59;;;;;;;8.20;2.75;;;26.10;83.10;;;;;;5108528;28;20383;-84
2021/12/21 09:35:27;;;;;;;9.35;2.50;;;26.00;84.80;;;;;;5108264;28;20401;-84
2021/12/21 09:37:55;;;;;;;10.43;2.90;;;25.90;87.50;;;;;;5107992;28;20735;-84
2021/12/21 09:40:29;;;;;;;8.57;2.30;;;25.90;89.80;;;;;;5122708;27;20476;-84
2021/12/21 09:42:58;;;;;;;7.97;2.80;;;25.90;90.50;;;;;;5128703;27;20377;-84
2021/12/21 09:45:26;;;;;;;10.25;2.60;;;25.90;91.20;;;;;;5127618;27;20380;-84
2021/12/21 09:47:53;;;;;;;9.48;2.67;;;26.00;91.90;;;;;;5128725;27;20948;-84
2021/12/21 09:50:23;;;;;;;9.85;2.40;;;25.90;93.10;;;;;;5128257;27;20381;-86
2021/12/21 09:52:50;;;;;;;10.82;2.70;;;25.80;94.20;;;;;;5129141;27;20460;-86
2021/12/21 09:55:19;;;;;;;8.65;2.42;;;25.90;95.50;;;;;;5128933;27;20401;-86
2021/12/21 09:57:47;;;;;;;9.85;2.50;;;25.80;96.90;;;;;;5128689;27;20399;-84
2021/12/21 10:00:17;;;;;;;10.57;2.50;;;25.70;98.00;;;;;;5128344;27;20888;-82
2021/12/21 10:02:45;;;;;;;8.30;2.50;;;25.70;99.40;;;;;;5127795;27;20368;-85
2021/12/21 10:05:19;;;;;;;9.95;2.50;;;25.70;99.90;;;;;;5128622;27;20868;-84
2021/12/21 10:08:07;;;;;;;10.90;3.05;;;25.50;99.90;;;;;;5108431;28;20366;-84
2021/12/21 10:10:37;;;;;;;13.05;2.72;;;25.60;99.90;;;;;;5127175;27;20381;-83
2021/12/21 10:13:08;;;;;;;10.65;2.80;;;25.50;99.90;;;;;;5125018;27;20851;-84
2021/12/21 10:15:44;;;;;;;9.20;2.78;;;25.40;99.90;;;;;;5123069;27;20405;-86
2021/12/21 10:18:12;;;;;;;8.83;2.83;;;25.40;99.90;;;;;;5128151;27;20406;-86
2021/12/21 10:20:43;;;;;;;9.63;2.97;;;25.40;99.90;;;;;;5112462;27;20453;-86
2021/12/21 10:23:18;;;;;;;9.20;2.88;;;25.50;99.90;;;;;;5129197;27;20972;-84
2021/12/21 10:26:05;;;;;;;12.63;3.13;;;25.60;99.90;;;;;;5135959;27;20413;-86
2021/12/21 10:28:35;;;;;;;9.70;2.78;;;25.60;99.90;;;;;;5108254;28;20897;-85
2021/12/21 10:31:10;;;;;;;9.55;3.05;;;25.70;99.90;;;;;;5125342;27;20470;-83
2021/12/21 10:33:40;;;;;;;11.03;3.17;;;25.60;99.90;;;;;;5129321;27;20452;-85
2021/12/21 10:36:09;;;;;;;9.80;3.05;;;25.60;99.90;;;;;;5128854;27;20393;-84
2021/12/21 10:38:59;;;;;;;9.82;2.90;;;25.50;99.90;;;;;;5128748;27;20518;-86
2021/12/21 10:41:41;;;;;;;12.98;3.15;;;25.50;99.90;;;;;;5128245;27;20421;-86
2021/12/21 10:44:21;;;;;;;8.88;2.92;;;25.40;99.90;;;;;;5128997;27;20876;-84
2021/12/21 10:46:53;;;;;;;8.13;2.80;;;25.30;99.90;;;;;;5128432;27;20441;-85
2021/12/21 10:49:26;;;;;;;9.70;2.90;;;25.30;99.90;;;;;;5110287;27;20733;-85
2021/12/21 10:52:05;;;;;;;10.25;2.90;;;25.30;99.90;;;;;;5128289;27;20757;-83
2021/12/21 10:54:45;;;;;;;9.77;2.80;;;25.30;99.90;;;;;;5128817;27;20393;-85
2021/12/21 10:57:36;;;;;;;10.00;2.90;;;25.30;99.90;;;;;;5128006;27;20385;-87
2021/12/21 11:00:14;;;;;;;10.82;3.10;;;25.20;99.90;;;;;;5128506;27;20460;-86
2021/12/21 11:02:43;;;;;;;11.43;3.03;;;25.10;99.90;;;;;;5128409;27;20377;-86
2021/12/21 11:05:16;;;;;;;10.25;3.17;;;25.10;99.90;;;;;;5110372;27;20411;-85
2021/12/21 11:07:48;;;;;;;12.02;3.22;;;24.90;99.90;;;;;;5128415;27;20376;-85
2021/12/21 11:10:16;;;;;;;12.18;3.53;;;24.80;99.90;;;;;;5128591;27;20380;-81
2021/12/21 11:12:54;;;;;;;13.95;3.40;;;24.60;99.90;;;;;;5128281;27;20391;-87
2021/12/21 11:15:29;;;;;;;12.55;3.45;;;24.50;99.90;;;;;;5128059;27;20545;-85
2021/12/21 11:17:57;;;;;;;11.85;3.20;;;24.40;99.90;;;;;;5109759;28;20457;-84
2021/12/21 11:20:25;;;;;;;13.27;3.50;;;24.40;99.90;;;;;;5128530;27;20882;-86
2021/12/21 11:22:54;;;;;;;12.15;3.45;;;24.40;99.90;;;;;;5128088;27;20434;-86
2021/12/21 11:25:22;;;;;;;11.43;3.28;;;24.20;99.90;;;;;;5127398;27;20744;-85
2021/12/21 11:27:51;;;;;;;13.85;3.70;;;24.20;99.90;;;;;;5128044;28;20545;-86
2021/12/21 11:30:22;;;;;;;17.20;4.00;;;24.10;99.90;;;;;;5109839;28;20388;-84
2021/12/21 11:32:52;;;;;;;23.27;4.22;;;24.10;99.90;;;;;;5127938;27;20522;-83
2021/12/21 11:37:56;;;;;;;20.23;4.30;;;23.90;99.90;;;;;;5127779;28;20376;-83
2021/12/21 11:40:31;;;;;;;39.20;5.40;;;23.80;99.90;;;;;;5127969;28;20389;-88
2021/12/21 11:42:57;;;;;;;54.55;6.60;;;23.70;99.90;;;;;;5129682;27;20376;-83
2021/12/21 11:45:32;;;;;;;52.17;6.00;;;23.60;99.90;;;;;;5131497;27;20460;-83
2021/12/21 11:48:11;;;;;;;29.63;4.50;;;23.60;99.90;;;;;;5131914;27;20421;-87
2021/12/21 11:50:41;;;;;;;31.85;4.75;;;23.50;99.90;;;;;;5132018;27;20365;-85
2021/12/21 11:53:14;;;;;;;31.90;5.10;;;23.40;99.90;;;;;;5131716;27;20472;-86
2021/12/21 11:55:45;;;;;;;33.73;4.63;;;23.40;99.90;;;;;;5113329;27;20400;-84
2021/12/21 11:58:24;;;;;;;28.10;4.15;;;23.30;99.90;;;;;;5131858;27;20777;-86
2021/12/21 12:00:56;;;;;;;17.58;3.55;;;23.30;99.90;;;;;;5131973;27;20384;-87
2021/12/21 12:03:26;;;;;;;17.05;3.40;;;23.20;99.90;;;;;;5131362;27;20376;-85
2021/12/21 12:05:55;;;;;;;23.58;4.15;;;23.20;99.90;;;;;;5113709;27;20782;-86
2021/12/21 12:08:25;;;;;;;24.73;3.83;;;23.10;99.90;;;;;;5131703;27;20387;-86
2021/12/21 12:11:01;;;;;;;27.67;4.25;;;23.00;99.90;;;;;;5131387;27;20377;-84
2021/12/21 12:13:39;;;;;;;42.58;5.53;;;23.00;99.90;;;;;;5131684;27;20377;-84
2021/12/21 12:16:12;;;;;;;35.28;5.10;;;23.00;99.90;;;;;;5130989;27;20409;-84
2021/12/21 12:18:50;;;;;;;36.65;4.95;;;22.80;99.90;;;;;;5131128;27;20466;-86
2021/12/21 12:21:25;;;;;;;30.37;4.90;;;22.80;99.90;;;;;;5131655;27;20514;-85
2021/12/21 12:23:55;;;;;;;33.85;4.78;;;22.70;99.90;;;;;;5131175;27;20385;-85
2021/12/21 12:26:29;;;;;;;27.83;4.30;;;22.70;99.90;;;;;;5115917;27;20389;-85
2021/12/21 12:29:09;;;;;;;40.13;5.15;;;22.80;99.90;;;;;;5131251;27;20847;-87
2021/12/21 12:31:39;;;;;;;40.95;6.20;;;22.80;99.90;;;;;;5131671;27;20469;-86
2021/12/21 12:34:07;;;;;;;26.67;4.80;;;22.80;99.90;;;;;;5134640;27;20736;-86
2021/12/21 12:36:49;;;;;;;22.23;4.20;;;22.70;99.90;;;;;;5134083;27;20399;-85
2021/12/21 12:39:40;;;;;;;29.73;5.40;;;22.60;99.90;;;;;;5128125;27;20385;-87
2021/12/21 12:42:10;;;;;;;55.85;7.68;;;22.50;99.90;;;;;;5118348;28;20527;-83
2021/12/21 12:44:39;;;;;;;50.92;7.13;;;22.50;99.90;;;;;;5129398;28;20460;-85
2021/12/21 12:47:09;;;;;;;49.78;6.38;;;22.50;99.90;;;;;;5126032;28;20376;-85
2021/12/21 12:49:47;;;;;;;39.00;5.72;;;22.50;99.90;;;;;;5130848;28;20466;-81
2021/12/21 12:52:28;;;;;;;28.65;4.93;;;22.50;99.90;;;;;;5133370;27;20426;-85
2021/12/21 12:55:13;;;;;;;25.35;4.75;;;22.50;99.90;;;;;;5151139;27;20482;-85
2021/12/21 12:57:59;;;;;;;31.45;4.65;;;22.50;99.90;;;;;;5152859;27;20416;-80
2021/12/21 13:00:30;;;;;;;28.25;4.53;;;22.50;99.90;;;;;;5137079;27;20451;-79
2021/12/21 13:03:03;;;;;;;30.52;4.65;;;22.60;99.90;;;;;;5129458;28;20399;-78
2021/12/21 13:05:36;;;;;;;24.33;4.53;;;22.60;99.90;;;;;;5129208;27;20444;-78
2021/12/21 13:08:10;;;;;;;23.67;4.22;;;22.70;99.90;;;;;;5129243;28;20453;-78
2021/12/21 13:10:39;;;;;;;25.30;4.70;;;22.70;99.90;;;;;;5128954;28;20422;-80
2021/12/21 13:13:07;;;;;;;27.58;4.70;;;22.80;99.90;;;;;;5128925;28;20401;-78
2021/12/21 13:15:43;;;;;;;30.08;5.07;;;22.80;99.90;;;;;;5128703;28;20408;-81
2021/12/21 13:18:17;;;;;;;26.38;4.45;;;22.80;99.90;;;;;;5110432;28;20756;-78
2021/12/21 13:20:47;;;;;;;24.17;4.30;;;22.90;99.90;;;;;;5129271;28;20369;-80
2021/12/21 13:23:24;;;;;;;27.27;4.85;;;22.80;99.90;;;;;;5129013;28;20446;-78
2021/12/21 13:25:54;;;;;;;31.20;5.18;;;22.90;99.90;;;;;;5128812;28;20468;-78
2021/12/21 13:28:21;;;;;;;25.23;4.30;;;22.90;99.90;;;;;;5128530;28;20385;-80
2021/12/21 13:30:50;;;;;;;20.35;4.40;;;22.90;99.90;;;;;;5129024;28;20479;-82
2021/12/21 13:33:23;;;;;;;17.48;4.00;;;22.90;99.90;;;;;;5128863;28;20397;-81
2021/12/21 13:35:53;;;;;;;19.38;4.30;;;22.90;99.90;;;;;;5128700;28;20404;-85
2021/12/21 13:38:22;;;;;;;16.75;4.32;;;22.80;99.90;;;;;;5128819;28;20369;-81
2021/12/21 13:41:11;;;;;;;19.70;3.97;;;22.70;99.90;;;;;;4997981;27;3685557;-80
2021/12/21 13:43:51;;;;;;;19.27;3.90;;;22.60;99.90;;;;;;5129087;27;20393;-85
2021/12/21 13:46:18;;;;;;;17.20;4.00;;;22.70;99.90;;;;;;5129625;27;20366;-79
2021/12/21 13:48:55;;;;;;;20.42;4.25;;;22.60;99.90;;;;;;5129545;27;20381;-79
2021/12/21 13:51:24;;;;;;;24.10;4.22;;;22.70;99.90;;;;;;5129627;27;20399;-83
2021/12/21 13:53:58;;;;;;;21.50;4.15;;;22.80;99.90;;;;;;5129340;27;20357;-79
2021/12/21 13:56:32;;;;;;;20.17;4.15;;;22.80;99.90;;;;;;5128694;27;20514;-82
2021/12/21 13:59:02;;;;;;;19.73;4.50;;;22.70;99.90;;;;;;5129391;27;20417;-85
2021/12/21 14:01:36;;;;;;;24.05;5.05;;;22.70;99.90;;;;;;5129651;27;20373;-81
2021/12/21 14:04:09;;;;;;;18.73;4.25;;;22.70;99.90;;;;;;5129217;27;20389;-80
2021/12/21 14:06:39;;;;;;;16.70;3.50;;;22.70;99.90;;;;;;5128506;27;20379;-82